• Join FlightAware (Why Join?)
  • Login
  • US Flag GB Flag 
21:38 EDT


 

Airport Tracker/Info


-or-


 

Live Flight TrackerFlight Track Log ✈ WEW1540 ✈ 10-May-2013 ✈ CYYN - CYQR

Flight Track Log - Related Links

Times and Time Zones

All times are in EDT time to prevent confusion due to time zone crossing. See the WEW1540 flight status page for this flight to view local times or setup timezone preferences in your user account.

Time Position Orientation Groundspeed Altitude Reporting Facility
EDT Latitude Longitude Course Direction KTS MPH feet Rate Location/Type
20:01 50.3167 -107.4167 77° East 140 161 9,000  Level Winnipeg Center
20:02 50.3333 -107.3500 69° East 170 196 9,000  Level Winnipeg Center
20:03 50.3333 -107.2667 90° East 180 207 9,000  Level Winnipeg Center
20:04 50.3667 -107.1833 58° Northeast 190 219 9,000  Level Winnipeg Center
20:05 50.3955 -106.8834 77° East  Level FlightAware Approximate
20:05 50.3667 -107.1167 90° East 190 219 9,000  Level Winnipeg Center
20:06 50.4058 -106.8105 77° East  Level FlightAware Approximate
20:06 50.3833 -107.0333 73° East 190 219 9,000  Level Winnipeg Center
20:07 50.3833 -106.9333 90° East 200 230 9,000  Level Winnipeg Center
20:08 50.3833 -106.8500 90° East 200 230 9,000  Level Winnipeg Center
20:09 50.4167 -106.7833 52° Northeast 190 219 9,000  Level Winnipeg Center
20:10 50.4167 -106.7000 90° East 190 219 9,000  Level Winnipeg Center
20:11 50.4333 -106.6000 75° East 200 230 9,000  Level Winnipeg Center
20:12 50.4333 -106.5167 90° East 200 230 9,000  Level Winnipeg Center
20:13 50.4500 -106.4500 69° East 190 219 9,000  Level Winnipeg Center
20:14 50.4500 -106.3667 90° East 200 230 9,000  Level Winnipeg Center
20:15 50.4500 -106.2667 90° East 200 230 9,000  Level Winnipeg Center
20:16 50.4500 -106.1833 90° East 210 242 9,000  Level Winnipeg Center
20:17 50.4333 -106.1000 107° East 210 242 9,000 -60 Level Winnipeg Center
20:18 50.4333 -106.0167 90° East 200 230 8,900 -60 Descending Winnipeg Center
20:19 50.4167 -105.9167 105° East 200 230 8,900  Level Winnipeg Center
20:20 50.4167 -105.8333 90° East 210 242 8,900  Level Winnipeg Center
20:21 50.4167 -105.7500 90° East 210 242 8,900  Level Winnipeg Center
20:22 50.4000 -105.6500 105° East 210 242 8,900  Level Winnipeg Center
20:23 50.4000 -105.5667 90° East 200 230 8,900 -60 Level Winnipeg Center
20:24 50.3833 -105.4833 107° East 200 230 8,800 -540 Descending Winnipeg Center
20:25 50.4000 -105.3833 75° East 210 242 7,900 -840 Descending Winnipeg Center
20:26 50.3833 -105.3000 107° East 220 253 7,200 -900 Descending Winnipeg Center
20:27 50.3667 -105.1833 103° East 220 253 6,200 -960 Descending Winnipeg Center
20:28 50.3667 -105.1000 90° East 210 242 5,300 -900 Descending Winnipeg Center
20:29 50.3667 -105.0000 90° East 210 242 4,400 -720 Descending Winnipeg Center
20:30 50.3500 -104.9167 107° East 200 230 3,900 -600 Descending Winnipeg Center
20:31 50.3667 -104.8500 69° East 190 219 3,200 -540 Descending Winnipeg Center
20:32 50.3667 -104.7667 90° East 180 207 2,900 -180 Descending Winnipeg Center
20:33 50.3667 -104.7167 90° East 160 184 2,900  Level Winnipeg Center
20:34 50.3667 -104.6333 90° East 140 161 2,900 -300 Level Winnipeg Center
20:35 50.4000 -104.6333 360° North 110 127 2,400 -540 Descending Winnipeg Center
20:36 50.4000 -104.6667 270° West 90 104 1,900 -540 Descending Winnipeg Center